LQTZ/TZL METAR and TAF weather

Enter ICAO airport designator
Station Type Date Time Source
LQTZ METAR 2019/10/15 21:00 UTC NOAA

LQTZ 152100Z VRB02KT CAVOK 08/07 Q1015


Station Type Date Time Source
LQTZ Decoded METAR 2019/10/15 21:00 UTC NOAA

Tuzla, Bosnia and Herzegovina (LQTZ) 44-33N 018-42E
Oct 15, 2019 - 05:00 PM EDT / 2019.10.15 2100 UTC
Wind: Variable at 2 MPH (2 KT):0
Visibility: greater than 7 mile(s):0
Temperature: 46 F (8 C)
Dew Point: 44 F (7 C)
Relative Humidity: 93%
Pressure (altimeter): 29.97 in. Hg (1015 hPa)
ob: LQTZ 152100Z VRB02KT CAVOK 08/07 Q1015
cycle: 21

Station Type Date Time Source
LQTZ TAF 2019/10/15 18:08 UTC NOAA

TAF LQTZ 151700Z 1518/1618 09005KT CAVOK TX26/1613Z TN09/1605Z PROB40 1600/1607 2000 BR PROB30 1603/1607 0200 FG BKN001

Example: see airport list